Dades meteomassalio
Diari Summary for Octubre 22, 2017 Units:  Metric    English   Both
« Previous Day
Next Day »
Diari Semanal Mensual Anual Personalitzat
  Maxima: Minima: Mijana:
Temperatura: 19.4 °C 10.6 °C 14.4 °C
Rosada: 8.6 °C 5.1 °C 6.8 °C
Humitat: 75 % 47 % 61 %
Velocitat del vent: 46.3 km/h 0.0 km/h 25.1 km/h
Racha vent: 46.3 km/h - -
Vent:- - SSW
Pressio: 1029.7 hPa 1026.6 hPa -
Pluja: 0.0 mm    
Historical Graphs
 
 
Tabular Data for Octubre 22, 2017
Time Temperature Dew Point Pressure Wind Wind Speed Wind Gust Humidity Rainfall Rate (Hourly) solar Conditions
00:03 15.6 °C 8.6 °C 1028.3 hPa SSW 14.8 km/h 14.8 km/h 63 % 0.0 mm 0.0 W/m2 CLR
00:08 15.6 °C 8.6 °C 1028.3 hPa SSW 22.2 km/h 22.2 km/h 63 % 0.0 mm 0.0 W/m2 CLR
00:13 15.6 °C 8.6 °C 1028.3 hPa SSW 14.5 km/h 14.5 km/h 63 % 0.0 mm 0.0 W/m2 CLR
00:18 15.6 °C 8.3 °C 1028.3 hPa SSW 20.4 km/h 20.4 km/h 62 % 0.0 mm 0.0 W/m2 CLR
00:23 15.6 °C 8.1 °C 1028.3 hPa SW 25.9 km/h 25.9 km/h 61 % 0.0 mm 0.0 W/m2 CLR
00:28 15.6 °C 8.1 °C 1028.3 hPa SSW 24.1 km/h 24.1 km/h 61 % 0.0 mm 0.0 W/m2 CLR
00:33 15.6 °C 7.8 °C 1028.3 hPa SSW 20.4 km/h 20.4 km/h 60 % 0.0 mm 0.0 W/m2 CLR
00:38 15.6 °C 7.8 °C 1028.3 hPa South 20.4 km/h 20.4 km/h 60 % 0.0 mm 0.0 W/m2 CLR
00:44 15.0 °C 7.3 °C 1028.7 hPa SSW 16.7 km/h 16.7 km/h 60 % 0.0 mm 0.0 W/m2 CLR
00:49 15.0 °C 7.3 °C 1028.7 hPa SSW 18.5 km/h 18.5 km/h 60 % 0.0 mm 0.0 W/m2 CLR
00:54 15.0 °C 7.3 °C 1028.3 hPa SSW 9.7 km/h 9.7 km/h 60 % 0.0 mm 0.0 W/m2 CLR
00:59 15.0 °C 7.3 °C 1028.3 hPa SSW 22.5 km/h 22.5 km/h 60 % 0.0 mm 0.0 W/m2 CLR
01:04 15.0 °C 7.3 °C 1028.3 hPa SSW 20.4 km/h 20.4 km/h 60 % 0.0 mm 0.0 W/m2 CLR
01:09 15.0 °C 7.3 °C 1028.3 hPa SSW 20.4 km/h 20.4 km/h 60 % 0.0 mm 0.0 W/m2 CLR
01:14 15.0 °C 7.3 °C 1028.3 hPa SSW 16.7 km/h 16.7 km/h 60 % 0.0 mm 0.0 W/m2 CLR
01:19 15.0 °C 7.3 °C 1028.3 hPa SSW 25.9 km/h 25.9 km/h 60 % 0.0 mm 0.0 W/m2 CLR
01:24 15.0 °C 7.3 °C 1028.3 hPa SSW 31.5 km/h 31.5 km/h 60 % 0.0 mm 0.0 W/m2 CLR
01:29 15.0 °C 7.3 °C 1028.3 hPa SSW 25.9 km/h 25.9 km/h 60 % 0.0 mm 0.0 W/m2 CLR
01:34 15.0 °C 7.3 °C 1028.3 hPa SSW 19.3 km/h 19.3 km/h 60 % 0.0 mm 0.0 W/m2 CLR
01:39 15.0 °C 7.3 °C 1028.7 hPa SSW 24.1 km/h 24.1 km/h 60 % 0.0 mm 0.0 W/m2 CLR
01:44 15.0 °C 7.1 °C 1028.3 hPa SW 20.4 km/h 20.4 km/h 59 % 0.0 mm 0.0 W/m2 CLR
01:49 14.4 °C 6.5 °C 1028.3 hPa SSW 29.6 km/h 29.6 km/h 59 % 0.0 mm 0.0 W/m2 CLR
01:54 14.4 °C 6.8 °C 1028.7 hPa SSW 17.7 km/h 17.7 km/h 60 % 0.0 mm 0.0 W/m2 CLR
01:59 14.4 °C 6.8 °C 1028.3 hPa SSW 20.4 km/h 20.4 km/h 60 % 0.0 mm 0.0 W/m2 CLR
02:04 14.4 °C 6.8 °C 1028.7 hPa SSW 18.5 km/h 18.5 km/h 60 % 0.0 mm 0.0 W/m2 CLR
02:09 14.4 °C 6.8 °C 1028.7 hPa SSW 22.2 km/h 22.2 km/h 60 % 0.0 mm 0.0 W/m2 CLR
02:14 14.4 °C 6.8 °C 1028.7 hPa SSW 20.4 km/h 20.4 km/h 60 % 0.0 mm 0.0 W/m2 CLR
02:19 14.4 °C 7.0 °C 1028.7 hPa SSW 27.8 km/h 27.8 km/h 61 % 0.0 mm 0.0 W/m2 CLR
02:24 13.9 °C 6.5 °C 1028.7 hPa SSW 18.5 km/h 18.5 km/h 61 % 0.0 mm 0.0 W/m2 CLR
02:29 13.9 °C 6.7 °C 1028.7 hPa SW 25.9 km/h 25.9 km/h 62 % 0.0 mm 0.0 W/m2 CLR
02:34 13.9 °C 6.7 °C 1028.3 hPa SW 16.1 km/h 16.1 km/h 62 % 0.0 mm 0.0 W/m2 CLR
02:39 13.9 °C 6.7 °C 1028.3 hPa SSW 18.5 km/h 18.5 km/h 62 % 0.0 mm 0.0 W/m2 CLR
02:44 13.9 °C 6.9 °C 1028.7 hPa WSW 27.8 km/h 27.8 km/h 63 % 0.0 mm 0.0 W/m2 CLR
02:49 13.9 °C 6.9 °C 1028.7 hPa SSW 18.5 km/h 18.5 km/h 63 % 0.0 mm 0.0 W/m2 CLR
02:54 13.9 °C 6.9 °C 1028.7 hPa SW 31.5 km/h 31.5 km/h 63 % 0.0 mm 0.0 W/m2 CLR
02:59 13.9 °C 7.2 °C 1028.7 hPa SW 31.5 km/h 31.5 km/h 64 % 0.0 mm 0.0 W/m2 CLR
03:04 13.9 °C 7.2 °C 1028.7 hPa SW 20.4 km/h 20.4 km/h 64 % 0.0 mm 0.0 W/m2 CLR
03:09 13.9 °C 7.2 °C 1028.7 hPa SSW 25.9 km/h 25.9 km/h 64 % 0.0 mm 0.0 W/m2 CLR
03:14 13.3 °C 6.9 °C 1028.7 hPa SW 18.5 km/h 18.5 km/h 65 % 0.0 mm 0.0 W/m2 CLR
03:19 13.3 °C 6.9 °C 1028.7 hPa SW 18.5 km/h 18.5 km/h 65 % 0.0 mm 0.0 W/m2 CLR
03:24 13.3 °C 6.9 °C 1028.7 hPa SW 31.5 km/h 31.5 km/h 65 % 0.0 mm 0.0 W/m2 CLR
03:29 13.3 °C 6.9 °C 1028.3 hPa SSW 31.5 km/h 31.5 km/h 65 % 0.0 mm 0.0 W/m2 CLR
03:34 13.3 °C 7.1 °C 1028.7 hPa SW 25.9 km/h 25.9 km/h 66 % 0.0 mm 0.0 W/m2 CLR
03:37 13.3 °C 7.1 °C 1028.7 hPa SW 25.9 km/h 25.9 km/h 66 % 0.0 mm 0.0 W/m2 CLR
03:42 13.3 °C 7.1 °C 1028.7 hPa SSW 25.9 km/h 25.9 km/h 66 % 0.0 mm 0.0 W/m2 CLR
03:48 13.3 °C 7.1 °C 1028.7 hPa SW 29.0 km/h 29.0 km/h 66 % 0.0 mm 0.0 W/m2 CLR
03:52 13.3 °C 7.1 °C 1028.7 hPa SW 29.6 km/h 29.6 km/h 66 % 0.0 mm 0.0 W/m2 CLR
03:58 13.3 °C 7.3 °C 1028.7 hPa SW 31.5 km/h 31.5 km/h 67 % 0.0 mm 0.0 W/m2 CLR
04:03 13.3 °C 7.3 °C 1028.7 hPa WSW 29.6 km/h 29.6 km/h 67 % 0.0 mm 0.0 W/m2 CLR
04:08 12.8 °C 6.8 °C 1028.3 hPa SSW 22.2 km/h 22.2 km/h 67 % 0.0 mm 0.0 W/m2 CLR
04:13 12.8 °C 6.8 °C 1028.7 hPa SW 25.9 km/h 25.9 km/h 67 % 0.0 mm 0.0 W/m2 CLR
04:18 12.8 °C 6.8 °C 1028.3 hPa SW 27.4 km/h 27.4 km/h 67 % 0.0 mm 0.0 W/m2 CLR
04:23 12.8 °C 6.8 °C 1028.3 hPa SSW 22.2 km/h 22.2 km/h 67 % 0.0 mm 0.0 W/m2 CLR
04:28 12.8 °C 6.8 °C 1028.3 hPa SSW 22.5 km/h 22.5 km/h 67 % 0.0 mm 0.0 W/m2 CLR
04:30 12.8 °C 6.8 °C 1028.3 hPa SSW 24.1 km/h 24.1 km/h 67 % 0.0 mm 0.0 W/m2 CLR
04:35 12.8 °C 7.0 °C 1028.3 hPa SSW 24.1 km/h 24.1 km/h 68 % 0.0 mm 0.0 W/m2 CLR
04:40 12.8 °C 7.0 °C 1028.7 hPa SSW 24.1 km/h 24.1 km/h 68 % 0.0 mm 0.0 W/m2 CLR
04:50 12.8 °C 7.0 °C 1028.3 hPa SSW 22.2 km/h 22.2 km/h 68 % 0.0 mm 0.0 W/m2 CLR
04:55 12.2 °C 6.5 °C 1028.3 hPa SSW 22.2 km/h 22.2 km/h 68 % 0.0 mm 0.0 W/m2 CLR
05:00 12.8 °C 7.0 °C 1028.3 hPa SSW 18.5 km/h 18.5 km/h 68 % 0.0 mm 0.0 W/m2 CLR
05:05 12.2 °C 6.5 °C 1028.3 hPa SSW 24.1 km/h 24.1 km/h 68 % 0.0 mm 0.0 W/m2 CLR
05:10 12.2 °C 6.5 °C 1028.3 hPa SSW 29.6 km/h 29.6 km/h 68 % 0.0 mm 0.0 W/m2 CLR
05:19 12.2 °C 6.7 °C 1028.3 hPa SSW 25.9 km/h 25.9 km/h 69 % 0.0 mm 0.0 W/m2 CLR
05:21 12.2 °C 6.7 °C 1028.3 hPa SSW 20.4 km/h 20.4 km/h 69 % 0.0 mm 0.0 W/m2 CLR
05:24 12.2 °C 6.7 °C 1028.3 hPa SSW 25.9 km/h 25.9 km/h 69 % 0.0 mm 0.0 W/m2 CLR
05:26 12.2 °C 6.7 °C 1028.3 hPa SSW 22.2 km/h 22.2 km/h 69 % 0.0 mm 0.0 W/m2 CLR
05:30 12.2 °C 6.7 °C 1028.3 hPa SSW 27.8 km/h 27.8 km/h 69 % 0.0 mm 0.0 W/m2 CLR
05:35 12.2 °C 6.7 °C 1028.3 hPa SSW 25.9 km/h 25.9 km/h 69 % 0.0 mm 0.0 W/m2 CLR
05:40 12.2 °C 6.7 °C 1028.3 hPa South 24.1 km/h 24.1 km/h 69 % 0.0 mm 0.0 W/m2 CLR
05:45 12.2 °C 6.9 °C 1028.3 hPa SSW 22.2 km/h 22.2 km/h 70 % 0.0 mm 0.0 W/m2 CLR
05:50 12.2 °C 6.9 °C 1028.3 hPa SSW 17.7 km/h 18.0 km/h 70 % 0.0 mm 0.0 W/m2 CLR
05:55 11.7 °C 6.4 °C 1028.3 hPa SSW 18.5 km/h 19.6 km/h 70 % 0.0 mm 0.0 W/m2 CLR
06:00 11.7 °C 6.4 °C 1028.3 hPa South 25.9 km/h 25.9 km/h 70 % 0.0 mm 0.0 W/m2 CLR
06:05 11.7 °C 6.4 °C 1028.3 hPa South 20.4 km/h 20.4 km/h 70 % 0.0 mm 0.0 W/m2 CLR
06:10 11.7 °C 6.4 °C 1028.3 hPa SSW 22.2 km/h 22.2 km/h 70 % 0.0 mm 0.0 W/m2 CLR
06:15 11.7 °C 6.4 °C 1028.3 hPa SSW 18.5 km/h 18.5 km/h 70 % 0.0 mm 0.0 W/m2 CLR
06:20 11.7 °C 6.4 °C 1028.3 hPa SSW 20.4 km/h 20.4 km/h 70 % 0.0 mm 0.0 W/m2 CLR
06:25 11.7 °C 6.4 °C 1028.7 hPa SSW 22.2 km/h 22.2 km/h 70 % 0.0 mm 0.0 W/m2 CLR
06:30 11.7 °C 6.4 °C 1028.7 hPa SW 22.2 km/h 22.2 km/h 70 % 0.0 mm 0.0 W/m2 CLR
06:31 11.7 °C 6.4 °C 1028.7 hPa SSW 22.2 km/h 22.2 km/h 70 % 0.0 mm 0.0 W/m2 CLR
06:36 11.7 °C 6.4 °C 1028.7 hPa SSW 18.5 km/h 18.5 km/h 70 % 0.0 mm 0.0 W/m2 CLR
06:41 11.7 °C 6.6 °C 1028.7 hPa SSW 20.4 km/h 20.4 km/h 71 % 0.0 mm 0.0 W/m2 CLR
06:46 11.7 °C 6.4 °C 1028.7 hPa SSW 24.1 km/h 24.1 km/h 70 % 0.0 mm 0.0 W/m2 CLR
06:51 11.7 °C 6.4 °C 1028.7 hPa South 18.5 km/h 18.5 km/h 70 % 0.0 mm 0.0 W/m2 CLR
06:56 11.7 °C 6.4 °C 1028.7 hPa SSW 20.4 km/h 20.4 km/h 70 % 0.0 mm 0.0 W/m2 CLR
07:01 11.1 °C 5.8 °C 1028.7 hPa South 18.5 km/h 18.5 km/h 70 % 0.0 mm 0.0 W/m2 CLR
07:06 11.1 °C 6.1 °C 1028.7 hPa South 25.9 km/h 25.9 km/h 71 % 0.0 mm 0.0 W/m2 CLR
07:11 11.1 °C 5.8 °C 1028.7 hPa South 20.4 km/h 20.4 km/h 70 % 0.0 mm 0.0 W/m2 CLR
07:12 11.1 °C 5.8 °C 1028.7 hPa SSW 24.1 km/h 24.1 km/h 70 % 0.0 mm 0.0 W/m2 CLR
07:17 11.1 °C 5.8 °C 1028.7 hPa SSW 19.3 km/h 19.3 km/h 70 % 0.0 mm 0.0 W/m2 CLR
07:22 11.1 °C 6.1 °C 1028.7 hPa South 19.3 km/h 19.3 km/h 71 % 0.0 mm 0.0 W/m2 CLR
07:27 11.1 °C 6.1 °C 1028.7 hPa South 18.5 km/h 18.5 km/h 71 % 0.0 mm 0.0 W/m2 CLR
07:32 11.1 °C 6.1 °C 1028.7 hPa South 14.8 km/h 14.8 km/h 71 % 0.0 mm 0.0 W/m2 CLR
07:37 10.6 °C 5.5 °C 1028.7 hPa South 20.4 km/h 20.4 km/h 71 % 0.0 mm 0.0 W/m2 CLR
07:42 11.1 °C 6.3 °C 1029.0 hPa South 25.9 km/h 25.9 km/h 72 % 0.0 mm 0.0 W/m2 CLR
07:47 10.6 °C 5.7 °C 1028.7 hPa South 25.9 km/h 25.9 km/h 72 % 0.0 mm 0.0 W/m2 CLR
07:52 11.1 °C 6.3 °C 1028.7 hPa South 22.2 km/h 22.2 km/h 72 % 0.0 mm 0.0 W/m2 CLR
07:57 10.6 °C 5.7 °C 1028.7 hPa SSE 13.0 km/h 13.0 km/h 72 % 0.0 mm 0.0 W/m2 CLR
08:02 10.6 °C 5.9 °C 1029.0 hPa South 16.7 km/h 16.7 km/h 73 % 0.0 mm 0.0 W/m2 CLR
08:07 10.6 °C 5.9 °C 1029.0 hPa SSE 16.7 km/h 16.7 km/h 73 % 0.0 mm 0.0 W/m2 CLR
08:12 10.6 °C 5.9 °C 1029.0 hPa South 18.5 km/h 18.5 km/h 73 % 0.0 mm 0.0 W/m2 OVC
08:17 11.1 °C 6.7 °C 1029.0 hPa SSE 16.7 km/h 16.7 km/h 74 % 0.0 mm 0.0 W/m2 OVC
08:22 10.6 °C 6.1 °C 1029.0 hPa SSE 14.8 km/h 14.8 km/h 74 % 0.0 mm 5.0 W/m2 OVC
08:27 10.6 °C 6.1 °C 1029.0 hPa SSE 18.5 km/h 18.5 km/h 74 % 0.0 mm 9.0 W/m2 BKN
08:32 10.6 °C 6.3 °C 1029.0 hPa SSE 16.7 km/h 16.7 km/h 75 % 0.0 mm 12.0 W/m2 BKN
08:37 10.6 °C 6.3 °C 1029.0 hPa South 19.3 km/h 19.3 km/h 75 % 0.0 mm 16.0 W/m2 BKN
08:42 10.6 °C 6.3 °C 1029.3 hPa SSE 18.5 km/h 18.5 km/h 75 % 0.0 mm 19.0 W/m2 BKN
08:47 10.6 °C 6.3 °C 1029.3 hPa South 19.3 km/h 19.3 km/h 75 % 0.0 mm 25.0 W/m2 BKN
08:52 10.6 °C 6.1 °C 1029.3 hPa SSE 16.7 km/h 16.7 km/h 74 % 0.0 mm 33.0 W/m2 BKN
08:57 10.6 °C 6.1 °C 1029.3 hPa SSE 16.7 km/h 16.7 km/h 74 % 0.0 mm 42.0 W/m2 BKN
09:02 10.6 °C 6.1 °C 1029.3 hPa SSE 16.1 km/h 16.1 km/h 74 % 0.0 mm 56.0 W/m2 SCT
09:07 10.6 °C 6.1 °C 1029.3 hPa South 16.7 km/h 16.7 km/h 74 % 0.0 mm 65.0 W/m2 SCT
09:12 11.1 °C 6.7 °C 1029.3 hPa SE 11.1 km/h 11.1 km/h 74 % 0.0 mm 69.0 W/m2 FEW
09:17 11.1 °C 6.4 °C 1029.3 hPa SSW 16.7 km/h 16.7 km/h 73 % 0.0 mm 77.0 W/m2 FEW
09:22 11.1 °C 6.3 °C 1029.3 hPa SSE 18.5 km/h 18.5 km/h 72 % 0.0 mm 95.0 W/m2 FEW
09:27 11.7 °C 6.4 °C 1029.3 hPa SSW 24.1 km/h 24.1 km/h 70 % 0.0 mm 116.0 W/m2 CLR
09:32 11.7 °C 6.2 °C 1029.3 hPa SSE 24.1 km/h 24.1 km/h 69 % 0.0 mm 121.0 W/m2 CLR
09:37 11.7 °C 6.2 °C 1029.7 hPa SSW 22.5 km/h 22.5 km/h 69 % 0.0 mm 158.0 W/m2 CLR
09:42 12.2 °C 6.5 °C 1029.7 hPa SSW 22.2 km/h 22.2 km/h 68 % 0.0 mm 125.0 W/m2 CLR
09:47 12.8 °C 7.0 °C 1029.7 hPa South 18.5 km/h 18.5 km/h 68 % 0.0 mm 132.0 W/m2 CLR
09:52 12.8 °C 7.0 °C 1029.3 hPa SSW 20.9 km/h 20.9 km/h 68 % 0.0 mm 216.0 W/m2 CLR
09:57 12.8 °C 6.8 °C 1029.7 hPa SW 24.1 km/h 24.1 km/h 67 % 0.0 mm 234.0 W/m2 CLR
10:02 13.3 °C 7.3 °C 1029.3 hPa SSW 24.1 km/h 24.1 km/h 67 % 0.0 mm 239.0 W/m2 CLR
10:07 13.3 °C 7.3 °C 1029.3 hPa SSW 24.1 km/h 24.1 km/h 67 % 0.0 mm 234.0 W/m2 CLR
10:12 13.3 °C 7.1 °C 1029.3 hPa South 31.5 km/h 31.5 km/h 66 % 0.0 mm 258.0 W/m2 CLR
10:17 13.3 °C 6.9 °C 1029.7 hPa SSW 25.9 km/h 25.9 km/h 65 % 0.0 mm 229.0 W/m2 CLR
10:18 13.3 °C 7.1 °C 1029.7 hPa SSW 20.9 km/h 20.9 km/h 66 % 0.0 mm 285.0 W/m2 CLR
10:23 13.9 °C 7.6 °C 1029.7 hPa SW 27.8 km/h 27.8 km/h 66 % 0.0 mm 274.0 W/m2 CLR
10:28 13.9 °C 7.4 °C 1029.7 hPa SW 25.7 km/h 25.7 km/h 65 % 0.0 mm 318.0 W/m2 CLR
10:33 13.9 °C 7.4 °C 1029.7 hPa SW 24.1 km/h 24.1 km/h 65 % 0.0 mm 330.0 W/m2 CLR
10:38 13.9 °C 7.4 °C 1029.7 hPa South 24.1 km/h 24.1 km/h 65 % 0.0 mm 345.0 W/m2 CLR
10:43 13.9 °C 7.2 °C 1029.7 hPa SW 20.4 km/h 20.4 km/h 64 % 0.0 mm 360.0 W/m2 CLR
10:48 14.4 °C 7.5 °C 1029.7 hPa SW 33.3 km/h 33.3 km/h 63 % 0.0 mm 383.0 W/m2 CLR
10:53 14.4 °C 7.5 °C 1029.7 hPa SW 31.5 km/h 31.5 km/h 63 % 0.0 mm 390.0 W/m2 CLR
10:58 14.4 °C 7.5 °C 1029.7 hPa SW 31.5 km/h 31.5 km/h 63 % 0.0 mm 371.0 W/m2 CLR
11:03 14.4 °C 7.2 °C 1029.7 hPa SW 25.9 km/h 25.9 km/h 62 % 0.0 mm 318.0 W/m2 CLR
11:13 14.4 °C 7.0 °C 1029.7 hPa SSW 31.5 km/h 31.5 km/h 61 % 0.0 mm 455.0 W/m2 CLR
11:18 15.0 °C 7.6 °C 1029.7 hPa WSW 27.8 km/h 27.8 km/h 61 % 0.0 mm 438.0 W/m2 CLR
11:23 15.0 °C 7.1 °C 1029.7 hPa SW 29.6 km/h 29.6 km/h 59 % 0.0 mm 364.0 W/m2 CLR
11:28 15.0 °C 7.1 °C 1029.7 hPa SSW 25.9 km/h 25.9 km/h 59 % 0.0 mm 462.0 W/m2 CLR
11:33 15.0 °C 7.1 °C 1029.7 hPa SSW 29.6 km/h 29.6 km/h 59 % 0.0 mm 503.0 W/m2 CLR
11:38 15.6 °C 7.3 °C 1029.7 hPa SW 30.6 km/h 30.6 km/h 58 % 0.0 mm 390.0 W/m2 CLR
11:43 15.6 °C 7.6 °C 1029.7 hPa SW 31.5 km/h 31.5 km/h 59 % 0.0 mm 512.0 W/m2 CLR
11:49 16.1 °C 7.8 °C 1029.7 hPa WSW 37.0 km/h 37.0 km/h 58 % 0.0 mm 548.0 W/m2 CLR
11:54 15.6 °C 7.3 °C 1029.3 hPa SSW 31.5 km/h 31.5 km/h 58 % 0.0 mm 478.0 W/m2 CLR
11:59 15.6 °C 7.3 °C 1029.3 hPa SW 31.5 km/h 31.5 km/h 58 % 0.0 mm 418.0 W/m2 CLR
12:04 16.1 °C 7.8 °C 1029.3 hPa South 27.8 km/h 27.8 km/h 58 % 0.0 mm 357.0 W/m2 CLR
12:09 15.6 °C 7.3 °C 1029.3 hPa SSW 33.3 km/h 33.3 km/h 58 % 0.0 mm 471.0 W/m2 CLR
12:14 16.1 °C 7.8 °C 1029.3 hPa SW 24.1 km/h 24.1 km/h 58 % 0.0 mm 622.0 W/m2 CLR
12:19 16.7 °C 7.8 °C 1029.3 hPa WSW 33.8 km/h 33.8 km/h 56 % 0.0 mm 438.0 W/m2 CLR
12:24 16.1 °C 7.3 °C 1029.3 hPa SW 29.6 km/h 29.6 km/h 56 % 0.0 mm 594.0 W/m2 CLR
12:29 16.7 °C 7.8 °C 1029.3 hPa South 31.5 km/h 31.5 km/h 56 % 0.0 mm 598.0 W/m2 CLR
12:34 16.7 °C 7.6 °C 1029.3 hPa SSW 38.9 km/h 38.9 km/h 55 % 0.0 mm 547.0 W/m2 CLR
12:39 16.7 °C 7.3 °C 1029.0 hPa SSW 31.5 km/h 31.5 km/h 54 % 0.0 mm 582.0 W/m2 CLR
12:44 16.7 °C 7.6 °C 1029.0 hPa SW 31.5 km/h 31.5 km/h 55 % 0.0 mm 592.0 W/m2 CLR
12:49 17.2 °C 7.8 °C 1029.0 hPa SW 27.8 km/h 27.8 km/h 54 % 0.0 mm 598.0 W/m2 CLR
12:54 17.2 °C 7.8 °C 1029.0 hPa SW 22.2 km/h 22.2 km/h 54 % 0.0 mm 606.0 W/m2 CLR
12:55 17.8 °C 8.3 °C 1028.7 hPa SSW 30.6 km/h 30.6 km/h 54 % 0.0 mm 608.0 W/m2 CLR
13:00 17.8 °C 8.1 °C 1028.7 hPa SW 22.2 km/h 22.2 km/h 53 % 0.0 mm 617.0 W/m2 CLR
13:05 17.8 °C 7.8 °C 1028.7 hPa SSW 22.5 km/h 22.5 km/h 52 % 0.0 mm 515.0 W/m2 CLR
13:10 17.2 °C 7.3 °C 1028.7 hPa SSW 35.2 km/h 35.2 km/h 52 % 0.0 mm 285.0 W/m2 CLR
13:15 17.2 °C 7.6 °C 1028.7 hPa SW 29.6 km/h 29.6 km/h 53 % 0.0 mm 580.0 W/m2 CLR
13:20 17.8 °C 8.1 °C 1028.7 hPa SSW 33.3 km/h 33.3 km/h 53 % 0.0 mm 636.0 W/m2 CLR
13:25 18.3 °C 8.3 °C 1028.3 hPa SSW 33.3 km/h 33.3 km/h 52 % 0.0 mm 534.0 W/m2 CLR
13:30 18.3 °C 8.3 °C 1028.3 hPa SW 24.1 km/h 24.1 km/h 52 % 0.0 mm 517.0 W/m2 CLR
13:35 18.3 °C 8.0 °C 1028.3 hPa SW 35.2 km/h 35.2 km/h 51 % 0.0 mm 621.0 W/m2 CLR
13:40 18.3 °C 8.0 °C 1028.0 hPa SW 29.6 km/h 29.6 km/h 51 % 0.0 mm 598.0 W/m2 CLR
13:45 18.3 °C 8.0 °C 1028.0 hPa SW 42.6 km/h 42.6 km/h 51 % 0.0 mm 612.0 W/m2 CLR
13:50 18.9 °C 8.5 °C 1028.0 hPa SW 29.0 km/h 29.0 km/h 51 % 0.0 mm 587.0 W/m2 CLR
13:55 18.3 °C 8.3 °C 1028.0 hPa SW 18.5 km/h 18.5 km/h 52 % 0.0 mm 617.0 W/m2 CLR
14:00 18.3 °C 7.7 °C 1028.0 hPa WSW 40.7 km/h 40.7 km/h 50 % 0.0 mm 526.0 W/m2 CLR
14:05 18.3 °C 8.0 °C 1028.0 hPa SW 31.5 km/h 31.5 km/h 51 % 0.0 mm 599.0 W/m2 CLR
14:10 18.3 °C 8.0 °C 1027.7 hPa WSW 38.6 km/h 38.6 km/h 51 % 0.0 mm 636.0 W/m2 CLR
14:15 18.3 °C 7.7 °C 1027.7 hPa SSW 37.0 km/h 37.0 km/h 50 % 0.0 mm 629.0 W/m2 CLR
14:20 18.3 °C 7.4 °C 1027.7 hPa SW 33.3 km/h 33.3 km/h 49 % 0.0 mm 647.0 W/m2 CLR
14:25 18.3 °C 7.4 °C 1027.7 hPa SSW 37.0 km/h 37.0 km/h 49 % 0.0 mm 432.0 W/m2 CLR
14:30 18.9 °C 7.9 °C 1027.7 hPa SW 37.0 km/h 37.0 km/h 49 % 0.0 mm 605.0 W/m2 CLR
14:35 18.9 °C 7.9 °C 1027.7 hPa SW 31.5 km/h 31.5 km/h 49 % 0.0 mm 589.0 W/m2 CLR
14:40 18.9 °C 7.6 °C 1027.7 hPa WSW 31.5 km/h 31.5 km/h 48 % 0.0 mm 598.0 W/m2 CLR
14:45 18.9 °C 7.6 °C 1027.3 hPa WSW 40.7 km/h 40.7 km/h 48 % 0.0 mm 589.0 W/m2 CLR
14:50 18.9 °C 7.6 °C 1027.7 hPa West 31.5 km/h 31.5 km/h 48 % 0.0 mm 585.0 W/m2 CLR
14:55 18.9 °C 7.6 °C 1027.3 hPa WSW 29.0 km/h 29.0 km/h 48 % 0.0 mm 570.0 W/m2 CLR
15:00 18.9 °C 7.6 °C 1027.3 hPa SW 38.6 km/h 38.6 km/h 48 % 0.0 mm 570.0 W/m2 CLR
15:05 18.9 °C 7.3 °C 1027.3 hPa WSW 31.5 km/h 31.5 km/h 47 % 0.0 mm 564.0 W/m2 CLR
15:10 18.9 °C 7.3 °C 1027.3 hPa WSW 37.0 km/h 37.0 km/h 47 % 0.0 mm 555.0 W/m2 CLR
15:15 18.9 °C 7.6 °C 1027.3 hPa SW 38.9 km/h 38.9 km/h 48 % 0.0 mm 545.0 W/m2 CLR
15:20 19.4 °C 7.8 °C 1027.3 hPa WSW 31.5 km/h 31.5 km/h 47 % 0.0 mm 538.0 W/m2 CLR
15:25 19.4 °C 7.8 °C 1027.0 hPa SSW 31.5 km/h 31.5 km/h 47 % 0.0 mm 531.0 W/m2 CLR
15:30 19.4 °C 8.2 °C 1027.0 hPa SW 41.8 km/h 41.8 km/h 48 % 0.0 mm 522.0 W/m2 CLR
15:35 19.4 °C 7.8 °C 1027.3 hPa WSW 33.3 km/h 33.3 km/h 47 % 0.0 mm 513.0 W/m2 CLR
15:40 18.9 °C 7.3 °C 1027.3 hPa WSW 35.2 km/h 35.2 km/h 47 % 0.0 mm 506.0 W/m2 CLR
15:45 18.9 °C 7.3 °C 1027.0 hPa SW 30.6 km/h 30.6 km/h 47 % 0.0 mm 494.0 W/m2 CLR
15:50 18.9 °C 7.6 °C 1027.0 hPa SW 31.5 km/h 31.5 km/h 48 % 0.0 mm 494.0 W/m2 CLR
15:55 18.3 °C 6.8 °C 1027.0 hPa WSW 25.9 km/h 25.9 km/h 47 % 0.0 mm 482.0 W/m2 CLR
16:00 18.3 °C 6.8 °C 1027.0 hPa WSW 33.3 km/h 33.3 km/h 47 % 0.0 mm 469.0 W/m2 CLR
16:02 18.3 °C 6.8 °C 1027.0 hPa WSW 33.3 km/h 33.3 km/h 47 % 0.0 mm 469.0 W/m2 CLR
16:07 18.3 °C 7.1 °C 1027.0 hPa West 33.3 km/h 33.3 km/h 48 % 0.0 mm 457.0 W/m2 CLR
16:12 18.9 °C 7.9 °C 1027.0 hPa West 35.2 km/h 35.2 km/h 49 % 0.0 mm 441.0 W/m2 CLR
16:17 18.3 °C 7.1 °C 1027.0 hPa WSW 40.7 km/h 40.7 km/h 48 % 0.0 mm 436.0 W/m2 CLR
16:22 18.3 °C 7.4 °C 1027.0 hPa WSW 33.3 km/h 33.3 km/h 49 % 0.0 mm 425.0 W/m2 CLR
16:27 18.9 °C 7.6 °C 1027.0 hPa WSW 42.6 km/h 42.6 km/h 48 % 0.0 mm 413.0 W/m2 CLR
16:32 18.3 °C 7.1 °C 1026.6 hPa SW 38.9 km/h 38.9 km/h 48 % 0.0 mm 404.0 W/m2 CLR
16:42 18.3 °C 6.8 °C 1026.6 hPa WSW 38.6 km/h 38.6 km/h 47 % 0.0 mm 381.0 W/m2 CLR
16:47 18.3 °C 6.8 °C 1026.6 hPa WSW 29.6 km/h 29.6 km/h 47 % 0.0 mm 380.0 W/m2 CLR
16:52 18.3 °C 7.1 °C 1026.6 hPa WSW 29.6 km/h 29.6 km/h 48 % 0.0 mm 285.0 W/m2 CLR
16:57 18.3 °C 7.4 °C 1026.6 hPa SSW 35.2 km/h 35.2 km/h 49 % 0.0 mm 272.0 W/m2 CLR
17:02 17.8 °C 6.6 °C 1026.6 hPa SW 33.3 km/h 33.3 km/h 48 % 0.0 mm 248.0 W/m2 CLR
17:07 17.8 °C 6.9 °C 1026.6 hPa SW 37.0 km/h 37.0 km/h 49 % 0.0 mm 308.0 W/m2 CLR
17:12 17.8 °C 6.9 °C 1026.6 hPa West 35.2 km/h 35.2 km/h 49 % 0.0 mm 225.0 W/m2 CLR
17:13 17.8 °C 6.9 °C 1026.6 hPa WSW 42.6 km/h 42.6 km/h 49 % 0.0 mm 257.0 W/m2 CLR
17:18 17.8 °C 7.2 °C 1026.6 hPa West 37.0 km/h 37.0 km/h 50 % 0.0 mm 264.0 W/m2 CLR
17:24 17.8 °C 7.5 °C 1026.6 hPa WSW 38.9 km/h 38.9 km/h 51 % 0.0 mm 229.0 W/m2 CLR
17:29 17.8 °C 7.5 °C 1026.6 hPa West 46.3 km/h 46.3 km/h 51 % 0.0 mm 220.0 W/m2 CLR
17:34 17.2 °C 7.0 °C 1026.6 hPa SW 40.7 km/h 40.7 km/h 51 % 0.0 mm 178.0 W/m2 CLR
17:39 17.2 °C 7.0 °C 1026.6 hPa SW 38.9 km/h 38.9 km/h 51 % 0.0 mm 183.0 W/m2 CLR
17:43 17.2 °C 7.0 °C 1026.6 hPa WSW 24.1 km/h 24.1 km/h 51 % 0.0 mm 193.0 W/m2 CLR
17:49 16.7 °C 6.5 °C 1026.6 hPa WSW 42.6 km/h 42.6 km/h 51 % 0.0 mm 149.0 W/m2 CLR
17:54 16.7 °C 6.8 °C 1026.6 hPa WSW 35.2 km/h 35.2 km/h 52 % 0.0 mm 141.0 W/m2 CLR
17:59 16.7 °C 6.5 °C 1026.6 hPa SW 35.2 km/h 35.2 km/h 51 % 0.0 mm 160.0 W/m2 CLR
18:04 16.7 °C 6.2 °C 1026.6 hPa WSW 44.4 km/h 44.4 km/h 50 % 0.0 mm 149.0 W/m2 CLR
18:09 16.7 °C 6.2 °C 1027.0 hPa WSW 40.7 km/h 40.7 km/h 50 % 0.0 mm 137.0 W/m2 CLR
18:14 16.7 °C 6.5 °C 1027.0 hPa SW 33.8 km/h 33.8 km/h 51 % 0.0 mm 105.0 W/m2 CLR
18:19 16.1 °C 5.9 °C 1027.0 hPa SW 37.0 km/h 37.0 km/h 51 % 0.0 mm 81.0 W/m2 CLR
18:24 16.1 °C 6.2 °C 1027.0 hPa SW 31.5 km/h 31.5 km/h 52 % 0.0 mm 67.0 W/m2 FEW
18:29 16.1 °C 6.2 °C 1027.3 hPa WSW 37.0 km/h 37.0 km/h 52 % 0.0 mm 56.0 W/m2 SCT
18:34 16.1 °C 6.5 °C 1027.3 hPa SW 33.3 km/h 33.3 km/h 53 % 0.0 mm 40.0 W/m2 SCT
18:39 16.1 °C 6.5 °C 1027.3 hPa WSW 30.6 km/h 30.6 km/h 53 % 0.0 mm 30.0 W/m2 BKN
18:44 15.6 °C 6.0 °C 1027.7 hPa WSW 31.5 km/h 31.5 km/h 53 % 0.0 mm 18.0 W/m2 BKN
18:49 15.6 °C 6.6 °C 1027.3 hPa SW 29.6 km/h 29.6 km/h 55 % 0.0 mm 14.0 W/m2 BKN
18:54 15.6 °C 6.6 °C 1027.3 hPa SW 29.6 km/h 29.6 km/h 55 % 0.0 mm 12.0 W/m2 BKN
18:59 15.0 °C 6.3 °C 1027.3 hPa SW 35.2 km/h 35.2 km/h 56 % 0.0 mm 11.0 W/m2 BKN
19:04 15.0 °C 6.3 °C 1027.7 hPa SW 31.5 km/h 31.5 km/h 56 % 0.0 mm 5.0 W/m2 OVC
19:09 15.0 °C 6.6 °C 1027.7 hPa WSW 33.3 km/h 33.3 km/h 57 % 0.0 mm 0.0 W/m2 OVC
19:14 15.0 °C 6.6 °C 1027.7 hPa WSW 40.7 km/h 40.7 km/h 57 % 0.0 mm 0.0 W/m2 OVC
19:19 15.0 °C 6.6 °C 1027.7 hPa WSW 38.9 km/h 38.9 km/h 57 % 0.0 mm 0.0 W/m2 OVC
19:24 15.0 °C 6.6 °C 1027.7 hPa SW 24.1 km/h 24.1 km/h 57 % 0.0 mm 0.0 W/m2 CLR
19:29 14.4 °C 6.3 °C 1027.7 hPa SW 24.1 km/h 24.1 km/h 58 % 0.0 mm 0.0 W/m2 CLR
19:34 15.0 °C 7.1 °C 1028.0 hPa WSW 24.1 km/h 24.1 km/h 59 % 0.0 mm 0.0 W/m2 CLR
19:39 14.4 °C 6.5 °C 1028.0 hPa West 37.0 km/h 37.0 km/h 59 % 0.0 mm 0.0 W/m2 CLR
19:44 14.4 °C 6.5 °C 1028.0 hPa SW 25.9 km/h 25.9 km/h 59 % 0.0 mm 0.0 W/m2 CLR
19:49 14.4 °C 6.8 °C 1028.0 hPa SW 31.5 km/h 31.5 km/h 60 % 0.0 mm 0.0 W/m2 CLR
19:54 14.4 °C 6.8 °C 1028.0 hPa SSW 20.9 km/h 20.9 km/h 60 % 0.0 mm 0.0 W/m2 CLR
19:59 14.4 °C 6.8 °C 1028.3 hPa South 24.1 km/h 24.1 km/h 60 % 0.0 mm 0.0 W/m2 CLR
20:04 14.4 °C 6.8 °C 1028.3 hPa SW 24.1 km/h 24.1 km/h 60 % 0.0 mm 0.0 W/m2 CLR
20:09 14.4 °C 6.8 °C 1028.3 hPa SW 20.4 km/h 20.4 km/h 60 % 0.0 mm 0.0 W/m2 CLR
20:14 14.4 °C 6.8 °C 1028.3 hPa SSW 20.4 km/h 20.4 km/h 60 % 0.0 mm 0.0 W/m2 CLR
20:19 13.9 °C 6.2 °C 1028.3 hPa SSW 25.9 km/h 25.9 km/h 60 % 0.0 mm 0.0 W/m2 CLR
20:24 14.4 °C 7.0 °C 1028.3 hPa SW 22.2 km/h 22.2 km/h 61 % 0.0 mm 0.0 W/m2 CLR
20:29 13.9 °C 6.5 °C 1028.3 hPa SW 16.7 km/h 16.7 km/h 61 % 0.0 mm 0.0 W/m2 CLR
20:34 13.9 °C 6.7 °C 1028.7 hPa SW 22.2 km/h 22.2 km/h 62 % 0.0 mm 0.0 W/m2 CLR
20:39 13.9 °C 6.7 °C 1028.7 hPa SSW 20.4 km/h 20.4 km/h 62 % 0.0 mm 0.0 W/m2 CLR
20:44 13.9 °C 6.7 °C 1028.7 hPa SW 22.5 km/h 22.5 km/h 62 % 0.0 mm 0.0 W/m2 CLR
20:49 13.9 °C 6.7 °C 1029.0 hPa SSW 24.1 km/h 24.1 km/h 62 % 0.0 mm 0.0 W/m2 CLR
20:54 13.9 °C 6.7 °C 1029.0 hPa SSW 22.2 km/h 22.2 km/h 62 % 0.0 mm 0.0 W/m2 CLR
20:59 13.9 °C 6.7 °C 1029.0 hPa South 11.1 km/h 11.1 km/h 62 % 0.0 mm 0.0 W/m2 CLR
21:00 13.9 °C 6.7 °C 1029.0 hPa South 11.1 km/h 11.1 km/h 62 % 0.0 mm 0.0 W/m2 CLR
21:05 13.3 °C 6.4 °C 1029.0 hPa SSW 9.7 km/h 9.7 km/h 63 % 0.0 mm 0.0 W/m2 CLR
21:10 13.3 °C 6.4 °C 1029.0 hPa SSW 22.2 km/h 22.2 km/h 63 % 0.0 mm 0.0 W/m2 CLR
21:15 13.3 °C 6.4 °C 1029.0 hPa SW 18.5 km/h 18.5 km/h 63 % 0.0 mm 0.0 W/m2 CLR
21:20 12.8 °C 5.9 °C 1029.0 hPa SW 9.3 km/h 9.3 km/h 63 % 0.0 mm 0.0 W/m2 CLR
21:25 12.8 °C 5.9 °C 1029.0 hPa SSW 17.7 km/h 17.7 km/h 63 % 0.0 mm 0.0 W/m2 CLR
21:30 13.3 °C 6.4 °C 1029.3 hPa SSW 13.0 km/h 13.0 km/h 63 % 0.0 mm 0.0 W/m2 CLR
21:35 13.3 °C 6.4 °C 1029.3 hPa South 8.0 km/h 8.0 km/h 63 % 0.0 mm 0.0 W/m2 CLR
21:40 13.3 °C 6.4 °C 1029.3 hPa South 17.7 km/h 17.7 km/h 63 % 0.0 mm 0.0 W/m2 CLR
21:45 13.3 °C 6.4 °C 1029.3 hPa SSW 16.7 km/h 16.7 km/h 63 % 0.0 mm 0.0 W/m2 CLR
21:50 13.3 °C 6.4 °C 1029.3 hPa SSW 12.9 km/h 12.9 km/h 63 % 0.0 mm 0.0 W/m2 CLR
21:55 12.8 °C 5.9 °C 1029.3 hPa SSW 18.5 km/h 18.5 km/h 63 % 0.0 mm 0.0 W/m2 CLR
22:00 12.8 °C 5.9 °C 1029.3 hPa SSW 22.2 km/h 22.2 km/h 63 % 0.0 mm 0.0 W/m2 CLR
22:05 13.3 °C 6.4 °C 1029.3 hPa SSE 14.8 km/h 14.8 km/h 63 % 0.0 mm 0.0 W/m2 CLR
22:10 12.8 °C 5.9 °C 1029.3 hPa SSE 1.9 km/h   63 % 0.0 mm 0.0 W/m2 CLR
22:15 12.8 °C 6.1 °C 1029.3 hPa SSE 9.3 km/h 9.3 km/h 64 % 0.0 mm 0.0 W/m2 CLR
22:20 12.2 °C 5.6 °C 1029.3 hPa SSE 9.3 km/h 9.3 km/h 64 % 0.0 mm 0.0 W/m2 CLR
22:25 11.7 °C 5.1 °C 1029.3 hPa South 11.1 km/h 11.1 km/h 64 % 0.0 mm 0.0 W/m2 CLR
22:30 11.7 °C 5.1 °C 1029.3 hPa South 7.4 km/h 7.4 km/h 64 % 0.0 mm 0.0 W/m2 CLR
22:32 11.7 °C 5.1 °C 1029.3 hPa Calm     64 % 0.0 mm 0.0 W/m2 CLR
22:37 11.7 °C 5.3 °C 1029.3 hPa SSE 7.4 km/h 7.4 km/h 65 % 0.0 mm 0.0 W/m2 CLR
22:42 11.7 °C 5.3 °C 1029.3 hPa South 18.5 km/h 18.5 km/h 65 % 0.0 mm 0.0 W/m2 CLR
22:47 11.7 °C 5.5 °C 1029.3 hPa South 18.5 km/h 18.5 km/h 66 % 0.0 mm 0.0 W/m2 CLR
22:48 11.7 °C 5.3 °C 1029.3 hPa SSW 24.1 km/h 24.1 km/h 65 % 0.0 mm 0.0 W/m2 CLR
22:53 11.7 °C 5.3 °C 1029.3 hPa South 14.8 km/h 14.8 km/h 65 % 0.0 mm 0.0 W/m2 CLR
22:58 11.7 °C 5.3 °C 1029.3 hPa South 18.5 km/h 18.5 km/h 65 % 0.0 mm 0.0 W/m2 CLR
23:03 11.7 °C 5.3 °C 1029.3 hPa South 16.7 km/h 16.7 km/h 65 % 0.0 mm 0.0 W/m2 CLR
23:08 12.2 °C 5.8 °C 1029.3 hPa South 19.3 km/h 19.3 km/h 65 % 0.0 mm 0.0 W/m2 CLR
23:13 12.2 °C 5.8 °C 1029.3 hPa SSE 16.7 km/h 16.7 km/h 65 % 0.0 mm 0.0 W/m2 CLR
23:18 12.2 °C 5.8 °C 1029.3 hPa SE 9.7 km/h 9.7 km/h 65 % 0.0 mm 0.0 W/m2 CLR
23:23 12.2 °C 6.1 °C 1029.3 hPa SSE 9.7 km/h 9.7 km/h 66 % 0.0 mm 0.0 W/m2 CLR
23:28 11.7 °C 5.5 °C 1029.3 hPa SSE 9.3 km/h 9.3 km/h 66 % 0.0 mm 0.0 W/m2 CLR
23:33 11.7 °C 5.5 °C 1029.3 hPa South 14.5 km/h 14.5 km/h 66 % 0.0 mm 0.0 W/m2 CLR
23:38 11.7 °C 5.7 °C 1029.3 hPa South 18.5 km/h 18.5 km/h 67 % 0.0 mm 0.0 W/m2 CLR
23:43 11.7 °C 5.7 °C 1029.3 hPa South 20.4 km/h 20.4 km/h 67 % 0.0 mm 0.0 W/m2 CLR
23:48 11.7 °C 5.7 °C 1029.3 hPa South 14.8 km/h 14.8 km/h 67 % 0.0 mm 0.0 W/m2 CLR
23:53 11.1 °C 5.2 °C 1029.7 hPa South 13.0 km/h 13.0 km/h 67 % 0.0 mm 0.0 W/m2 CLR
23:58 11.1 °C 5.2 °C 1029.3 hPa SSW 18.5 km/h 18.5 km/h 67 % 0.0 mm 0.0 W/m2 CLR
Lo Temps de Massalio
Compliments of Weather Underground - 1.25 mb